createdAt,value
2022-09-07T00:00:43.374Z,19.87
2022-09-07T00:03:46.013Z,19.93
2022-09-07T00:06:48.664Z,19.94
2022-09-07T00:09:52.600Z,19.88
2022-09-07T00:12:55.189Z,19.83
2022-09-07T00:15:58.219Z,19.82
2022-09-07T00:19:02.742Z,19.81
2022-09-07T00:22:05.284Z,19.81
2022-09-07T00:25:10.340Z,19.86
2022-09-07T00:28:12.863Z,19.86
2022-09-07T00:31:17.551Z,19.99
2022-09-07T00:34:20.163Z,19.97
2022-09-07T00:37:22.802Z,19.91
2022-09-07T00:40:26.836Z,19.85
2022-09-07T00:43:34.413Z,19.83
2022-09-07T00:46:37.030Z,19.87
2022-09-07T00:49:40.664Z,19.96
2022-09-07T00:52:44.352Z,20.07
2022-09-07T00:55:49.838Z,19.85
2022-09-07T00:58:52.930Z,19.62
2022-09-07T01:01:55.951Z,19.59
2022-09-07T01:05:07.563Z,19.62
2022-09-07T01:08:13.152Z,19.80
2022-09-07T01:11:18.483Z,19.99
2022-09-07T01:14:24.744Z,20.00
2022-09-07T01:17:33.249Z,19.99
2022-09-07T01:20:49.601Z,20.00
2022-09-07T01:24:28.591Z,20.01
2022-09-07T01:28:11.915Z,20.02
2022-09-07T01:31:20.888Z,20.04
2022-09-07T01:34:26.181Z,20.06
2022-09-07T01:37:34.029Z,20.08
2022-09-07T01:40:42.944Z,20.16
2022-09-07T01:43:51.733Z,20.18
2022-09-07T01:47:00.225Z,20.17
2022-09-07T01:50:07.545Z,20.16
2022-09-07T01:53:15.281Z,20.14
2022-09-07T01:56:20.503Z,20.18
2022-09-07T01:59:28.127Z,20.20
2022-09-07T02:02:32.334Z,20.18
2022-09-07T02:05:37.144Z,20.29
2022-09-07T02:08:43.541Z,20.28
2022-09-07T02:11:47.703Z,20.25
2022-09-07T02:14:54.301Z,20.26
2022-09-07T02:18:02.058Z,20.19
2022-09-07T02:21:05.860Z,20.18
2022-09-07T02:24:11.741Z,20.21
2022-09-07T02:27:17.826Z,20.18
2022-09-07T02:30:21.724Z,20.18
2022-09-07T02:33:24.497Z,20.19
2022-09-07T02:36:30.550Z,20.19
2022-09-07T02:39:33.642Z,20.18
2022-09-07T02:42:36.508Z,20.18
2022-09-07T02:45:48.029Z,20.16
2022-09-07T02:48:54.196Z,20.18
2022-09-07T02:52:01.644Z,20.48
2022-09-07T02:55:10.883Z,20.64
2022-09-07T02:58:22.834Z,20.76
2022-09-07T03:01:34.094Z,20.78
2022-09-07T03:04:43.933Z,20.80
2022-09-07T03:07:51.608Z,20.70
2022-09-07T03:10:54.426Z,20.83
2022-09-07T03:14:12.658Z,20.85
2022-09-07T03:17:17.020Z,20.78
2022-09-07T03:20:20.875Z,20.72
2022-09-07T03:23:23.492Z,20.79
2022-09-07T03:26:26.395Z,20.66
2022-09-07T03:29:29.142Z,20.62
2022-09-07T03:32:34.636Z,20.42
2022-09-07T03:35:37.269Z,20.59
2022-09-07T03:38:39.848Z,20.39
2022-09-07T03:41:42.406Z,20.14
2022-09-07T03:44:45.249Z,19.96
2022-09-07T03:47:49.166Z,19.85
2022-09-07T03:50:57.250Z,19.71
2022-09-07T03:54:00.604Z,19.55
2022-09-07T03:57:03.390Z,19.43
2022-09-07T04:00:06.860Z,19.38
2022-09-07T04:03:10.705Z,19.33
2022-09-07T04:06:14.066Z,19.37
2022-09-07T04:09:17.161Z,19.37
2022-09-07T04:12:20.317Z,19.52
2022-09-07T04:15:23.345Z,19.54
2022-09-07T04:18:27.960Z,19.42
2022-09-07T04:21:32.458Z,19.27
2022-09-07T04:24:35.553Z,19.25
2022-09-07T04:27:38.643Z,19.15
2022-09-07T04:30:41.287Z,19.12
2022-09-07T04:33:45.664Z,19.33
2022-09-07T04:36:48.191Z,19.40
2022-09-07T04:39:51.806Z,19.37
2022-09-07T04:42:54.390Z,19.35
2022-09-07T04:45:57.082Z,19.21
2022-09-07T04:49:02.972Z,19.01
2022-09-07T04:52:05.518Z,18.85
2022-09-07T04:55:08.886Z,18.81
2022-09-07T04:58:11.475Z,18.77
2022-09-07T05:01:15.725Z,18.69
2022-09-07T05:04:19.711Z,18.75
2022-09-07T05:07:22.229Z,18.71
2022-09-07T05:10:24.814Z,18.67
2022-09-07T05:13:27.320Z,18.68
2022-09-07T05:16:30.800Z,18.66
2022-09-07T05:19:34.843Z,18.67
2022-09-07T05:22:40.966Z,18.70
2022-09-07T05:25:44.670Z,18.72
2022-09-07T05:28:47.965Z,18.73
2022-09-07T05:31:50.502Z,18.78
2022-09-07T05:34:54.509Z,18.89
2022-09-07T05:37:57.047Z,18.98
2022-09-07T05:41:00.461Z,19.15
2022-09-07T05:47:26.464Z,19.52
2022-09-07T05:50:30.486Z,19.68
2022-09-07T05:53:35.492Z,19.78
2022-09-07T05:56:38.235Z,19.90
2022-09-07T05:59:40.858Z,20.00
2022-09-07T06:02:43.424Z,20.05
2022-09-07T06:05:47.484Z,20.15
2022-09-07T06:08:51.275Z,20.31
2022-09-07T06:11:53.975Z,20.52
2022-09-07T06:14:56.504Z,20.89
2022-09-07T06:17:59.004Z,21.52
2022-09-07T06:21:04.836Z,22.06
2022-09-07T06:24:08.056Z,22.33
2022-09-07T06:27:10.707Z,22.21
2022-09-07T06:30:13.929Z,21.84
2022-09-07T06:33:21.387Z,21.78
2022-09-07T06:36:28.190Z,21.95
2022-09-07T06:39:30.797Z,22.13
2022-09-07T06:42:33.444Z,22.30
2022-09-07T06:45:36.047Z,22.33
2022-09-07T06:48:42.675Z,22.46
2022-09-07T06:51:48.425Z,22.78
2022-09-07T06:58:00.808Z,23.23
2022-09-07T07:01:07.181Z,23.35
2022-09-07T07:04:09.848Z,23.38
2022-09-07T07:07:14.614Z,23.09
2022-09-07T07:10:22.167Z,23.04
2022-09-07T07:13:27.432Z,23.07
2022-09-07T07:16:29.941Z,23.25
2022-09-07T07:19:32.624Z,23.32
2022-09-07T07:22:46.731Z,23.39
2022-09-07T07:25:49.668Z,23.44
2022-09-07T07:29:00.812Z,23.51
2022-09-07T07:32:05.201Z,23.52
2022-09-07T07:35:08.754Z,23.75
2022-09-07T07:48:20.280Z,24.32
2022-09-07T07:51:22.954Z,24.51
2022-09-07T07:54:26.812Z,24.66
2022-09-07T07:57:30.617Z,24.67
2022-09-07T08:00:52.880Z,24.91
2022-09-07T08:03:55.998Z,25.17
2022-09-07T08:06:58.587Z,25.24
2022-09-07T08:10:02.366Z,25.41
2022-09-07T08:13:05.116Z,25.36
2022-09-07T08:16:08.602Z,25.46
2022-09-07T08:19:11.182Z,25.61
2022-09-07T08:22:13.887Z,25.48
2022-09-07T08:25:18.496Z,25.38
2022-09-07T08:28:21.721Z,25.39
2022-09-07T08:31:24.534Z,25.35
2022-09-07T08:34:27.090Z,25.70
2022-09-07T08:37:29.648Z,25.62
2022-09-07T08:40:37.036Z,25.76
2022-09-07T08:43:49.109Z,25.89
2022-09-07T08:46:55.931Z,25.82
2022-09-07T08:50:02.881Z,26.09
2022-09-07T08:53:08.408Z,26.11
2022-09-07T08:56:15.580Z,25.93
2022-09-07T08:59:21.536Z,26.31
2022-09-07T09:02:28.206Z,25.63
2022-09-07T09:05:38.663Z,26.27
2022-09-07T09:08:52.704Z,26.46
2022-09-07T09:12:07.511Z,26.74
2022-09-07T09:15:17.573Z,26.95
2022-09-07T09:18:31.392Z,26.67
2022-09-07T09:21:35.644Z,26.94
2022-09-07T09:24:39.787Z,27.27
2022-09-07T09:27:43.822Z,27.42
2022-09-07T09:30:47.728Z,27.96
2022-09-07T09:34:11.706Z,27.89
2022-09-07T09:37:14.350Z,27.48
2022-09-07T09:40:26.082Z,27.01
2022-09-07T09:43:35.524Z,26.69
2022-09-07T09:46:38.841Z,26.89
2022-09-07T09:49:41.658Z,27.21
2022-09-07T09:52:51.441Z,27.38
2022-09-07T09:55:55.102Z,27.24
2022-09-07T10:05:58.318Z,27.38
2022-09-07T10:09:01.821Z,27.30
2022-09-07T10:12:06.266Z,27.71
2022-09-07T10:15:27.140Z,27.86
2022-09-07T10:18:33.672Z,27.85
2022-09-07T10:21:36.201Z,27.70
2022-09-07T10:24:41.396Z,27.69
2022-09-07T10:27:46.683Z,27.63
2022-09-07T10:31:11.009Z,27.74
2022-09-07T10:34:27.217Z,27.87
2022-09-07T10:37:37.553Z,28.00
2022-09-07T10:40:43.420Z,28.43
2022-09-07T10:43:47.291Z,28.76
2022-09-07T10:46:57.681Z,28.96
2022-09-07T10:53:41.897Z,28.08
2022-09-07T10:56:52.950Z,27.84
2022-09-07T11:00:09.278Z,27.79
2022-09-07T11:03:32.944Z,27.53
2022-09-07T11:06:40.048Z,27.42
2022-09-07T11:09:50.184Z,27.63
2022-09-07T11:12:55.217Z,27.39
2022-09-07T11:16:00.368Z,27.25
2022-09-07T11:22:34.341Z,27.82
2022-09-07T11:25:42.086Z,28.16
2022-09-07T11:28:47.160Z,28.45
2022-09-07T11:31:52.279Z,29.16
2022-09-07T11:34:59.924Z,29.38
2022-09-07T11:38:06.484Z,29.59
2022-09-07T11:41:19.835Z,29.44
2022-09-07T11:44:25.208Z,29.45
2022-09-07T11:47:30.988Z,29.37
2022-09-07T11:50:38.421Z,29.31
2022-09-07T11:53:45.311Z,29.47
2022-09-07T11:56:51.866Z,29.80
2022-09-07T12:00:02.587Z,30.54
2022-09-07T12:03:23.627Z,30.87
2022-09-07T12:06:43.513Z,30.32
2022-09-07T12:09:56.572Z,30.55
2022-09-07T12:13:14.345Z,31.57
2022-09-07T12:16:22.408Z,31.35
2022-09-07T12:19:26.537Z,32.18
2022-09-07T12:22:30.423Z,33.06
2022-09-07T12:25:33.756Z,33.57
2022-09-07T12:29:05.561Z,33.13
2022-09-07T12:35:38.770Z,32.34
2022-09-07T12:39:24.752Z,31.27
2022-09-07T12:42:34.323Z,32.05
2022-09-07T12:45:51.670Z,33.05
2022-09-07T12:48:59.728Z,32.23
2022-09-07T12:52:16.016Z,35.91
2022-09-07T12:59:44.329Z,43.37
2022-09-07T13:03:04.315Z,38.69
2022-09-07T13:06:17.264Z,36.27
2022-09-07T13:09:31.488Z,35.63
2022-09-07T13:12:53.684Z,34.35
2022-09-07T13:16:30.051Z,34.63
2022-09-07T13:20:08.962Z,35.00
2022-09-07T13:23:29.531Z,41.25
2022-09-07T13:26:54.889Z,40.60
2022-09-07T13:29:59.858Z,39.88
2022-09-07T13:33:50.576Z,42.63
2022-09-07T13:36:54.451Z,46.34
2022-09-07T13:39:58.430Z,46.69
2022-09-07T13:43:01.908Z,49.02
2022-09-07T13:46:09.290Z,47.19
2022-09-07T13:49:20.264Z,47.15
2022-09-07T13:52:32.160Z,41.64
2022-09-07T13:55:38.719Z,38.83
2022-09-07T13:58:42.588Z,36.81
2022-09-07T14:01:47.159Z,37.53
2022-09-07T14:04:51.696Z,44.25
2022-09-07T14:07:55.477Z,46.91
2022-09-07T14:10:58.001Z,43.64
2022-09-07T14:14:24.716Z,43.12
2022-09-07T14:17:29.007Z,39.19
2022-09-07T14:20:32.323Z,40.82
2022-09-07T14:23:38.840Z,43.15
2022-09-07T14:26:46.746Z,46.41
2022-09-07T14:29:49.506Z,47.85
2022-09-07T14:32:53.693Z,45.07
2022-09-07T14:35:57.209Z,44.08
2022-09-07T14:39:04.980Z,39.03
2022-09-07T14:42:08.007Z,34.68
2022-09-07T14:45:18.337Z,33.26
2022-09-07T14:48:31.508Z,32.16
2022-09-07T14:51:36.958Z,31.44
2022-09-07T14:54:40.975Z,31.81
2022-09-07T14:57:43.444Z,31.33
2022-09-07T15:00:46.558Z,32.56
2022-09-07T15:03:55.058Z,33.63
2022-09-07T15:07:04.557Z,36.37
2022-09-07T15:10:15.893Z,39.15
2022-09-07T15:13:24.923Z,37.39
2022-09-07T15:16:28.800Z,34.20
2022-09-07T15:19:35.101Z,35.59
2022-09-07T15:22:37.541Z,37.00
2022-09-07T15:25:46.531Z,37.71
2022-09-07T15:32:13.173Z,38.85
2022-09-07T15:35:16.007Z,36.90
2022-09-07T15:41:42.953Z,38.25
2022-09-07T15:44:45.488Z,33.97
2022-09-07T15:47:52.475Z,31.91
2022-09-07T15:51:02.567Z,31.46
2022-09-07T15:54:12.912Z,31.12
2022-09-07T16:00:40.259Z,30.59
2022-09-07T16:03:42.823Z,30.63
2022-09-07T16:06:48.141Z,32.63
2022-09-07T16:09:52.453Z,35.43
2022-09-07T16:13:10.475Z,35.93
2022-09-07T16:16:15.757Z,37.90
2022-09-07T16:19:21.522Z,38.93
2022-09-07T16:25:56.576Z,35.04
2022-09-07T16:29:01.528Z,31.96
2022-09-07T16:35:27.414Z,29.77
2022-09-07T16:38:47.298Z,29.03
2022-09-07T16:41:50.007Z,28.79
2022-09-07T16:44:53.922Z,28.68
2022-09-07T16:47:56.851Z,28.45
2022-09-07T16:51:02.346Z,28.02
2022-09-07T16:54:06.155Z,27.75
2022-09-07T16:57:08.814Z,27.31
2022-09-07T17:00:13.430Z,27.23
2022-09-07T17:03:15.921Z,27.05
2022-09-07T17:06:20.257Z,26.88
2022-09-07T17:09:26.576Z,26.68
2022-09-07T17:12:29.386Z,26.63
2022-09-07T17:15:34.819Z,26.58
2022-09-07T17:22:00.868Z,26.26
2022-09-07T17:25:03.431Z,26.09
2022-09-07T17:28:05.956Z,26.01
2022-09-07T17:31:11.690Z,25.89
2022-09-07T17:34:33.823Z,25.82
2022-09-07T17:37:36.313Z,25.77
2022-09-07T17:40:39.026Z,25.71
2022-09-07T17:43:45.239Z,25.63
2022-09-07T17:46:49.627Z,25.55
2022-09-07T17:49:52.148Z,25.60
2022-09-07T17:52:54.639Z,25.63
2022-09-07T17:55:57.179Z,25.62
2022-09-07T18:02:24.154Z,25.57
2022-09-07T18:05:26.722Z,25.52
2022-09-07T18:08:29.333Z,25.53
2022-09-07T18:11:49.087Z,25.35
2022-09-07T18:14:52.112Z,24.82
2022-09-07T18:17:57.084Z,24.03
2022-09-07T18:20:59.651Z,23.78
2022-09-07T18:24:04.801Z,23.79
2022-09-07T18:27:07.919Z,23.96
2022-09-07T18:30:11.257Z,23.43
2022-09-07T18:33:15.497Z,23.17
2022-09-07T18:36:18.127Z,22.82
2022-09-07T18:39:20.752Z,22.56
2022-09-07T18:42:23.337Z,22.53
2022-09-07T18:45:27.526Z,22.71
2022-09-07T18:48:32.061Z,22.84
2022-09-07T18:52:51.767Z,23.04
2022-09-07T18:54:57.023Z,23.10
2022-09-07T18:58:01.402Z,23.14
2022-09-07T19:01:05.068Z,23.09
2022-09-07T19:04:09.095Z,23.04
2022-09-07T19:07:12.104Z,23.01
2022-09-07T19:10:16.695Z,23.07
2022-09-07T19:13:19.253Z,23.02
2022-09-07T19:16:21.848Z,22.97
2022-09-07T19:19:26.643Z,22.93
2022-09-07T19:22:29.563Z,22.93
2022-09-07T19:25:32.101Z,22.78
2022-09-07T19:28:35.501Z,22.75
2022-09-07T19:31:38.278Z,22.72
2022-09-07T19:34:43.310Z,22.68
2022-09-07T19:37:45.868Z,22.68
2022-09-07T19:40:56.260Z,22.63
2022-09-07T19:43:59.012Z,22.63
2022-09-07T19:47:01.911Z,22.53
2022-09-07T19:50:06.249Z,22.53
2022-09-07T19:53:08.738Z,22.35
2022-09-07T19:56:13.744Z,22.21
2022-09-07T19:59:19.230Z,22.24
2022-09-07T20:02:21.685Z,22.11
2022-09-07T20:05:29.399Z,22.05
2022-09-07T20:08:31.912Z,22.01
2022-09-07T20:11:35.818Z,21.96
2022-09-07T20:14:38.322Z,21.89
2022-09-07T20:17:40.782Z,21.83
2022-09-07T20:20:44.763Z,21.78
2022-09-07T20:23:47.369Z,21.76
2022-09-07T20:26:50.163Z,21.68
2022-09-07T20:29:53.155Z,21.57
2022-09-07T20:32:55.720Z,21.51
2022-09-07T20:36:04.528Z,21.48
2022-09-07T20:39:07.175Z,21.43
2022-09-07T20:42:09.635Z,21.39
2022-09-07T20:45:12.251Z,21.33
2022-09-07T20:48:15.205Z,21.25
2022-09-07T20:51:21.143Z,21.24
2022-09-07T20:54:23.823Z,21.20
2022-09-07T20:57:26.530Z,21.22
2022-09-07T21:00:29.377Z,21.18
2022-09-07T21:03:32.152Z,21.18
2022-09-07T21:06:36.270Z,21.12
2022-09-07T21:09:38.839Z,21.01
2022-09-07T21:12:41.431Z,21.01
2022-09-07T21:15:45.388Z,20.97
2022-09-07T21:18:48.182Z,21.00
2022-09-07T21:21:52.007Z,21.03
2022-09-07T21:24:54.549Z,21.08
2022-09-07T21:27:57.012Z,21.05
2022-09-07T21:31:00.507Z,21.09
2022-09-07T21:34:03.624Z,21.15
2022-09-07T21:37:07.359Z,21.25
2022-09-07T21:40:10.243Z,21.32
2022-09-07T21:43:12.853Z,21.37
2022-09-07T21:46:17.433Z,21.35
2022-09-07T21:49:20.101Z,21.34
2022-09-07T21:52:24.018Z,21.32
2022-09-07T21:55:26.682Z,21.28
2022-09-07T21:58:30.138Z,21.29
2022-09-07T22:01:33.257Z,21.35
2022-09-07T22:04:35.760Z,21.42
2022-09-07T22:07:39.683Z,21.38
2022-09-07T22:10:42.829Z,21.33
2022-09-07T22:13:45.651Z,21.39
2022-09-07T22:16:48.214Z,21.35
2022-09-07T22:19:50.681Z,21.30
2022-09-07T22:22:54.663Z,21.29
2022-09-07T22:25:57.225Z,21.29
2022-09-07T22:29:00.177Z,21.27
2022-09-07T22:32:03.043Z,21.24
2022-09-07T22:35:06.467Z,21.21
2022-09-07T22:38:10.248Z,21.15
2022-09-07T22:41:13.989Z,21.14
2022-09-07T22:44:18.031Z,21.15
2022-09-07T22:47:20.881Z,21.10
2022-09-07T22:50:23.398Z,21.13
2022-09-07T22:53:27.645Z,21.18
2022-09-07T22:56:32.311Z,21.21
2022-09-07T22:59:35.076Z,21.27
2022-09-07T23:02:37.657Z,21.36
2022-09-07T23:05:40.247Z,21.23
2022-09-07T23:08:44.287Z,21.06
2022-09-07T23:11:47.732Z,21.06
2022-09-07T23:14:50.440Z,21.05
2022-09-07T23:17:52.935Z,20.98
2022-09-07T23:21:00.605Z,20.90
2022-09-07T23:24:05.090Z,20.88
2022-09-07T23:27:07.538Z,20.78
2022-09-07T23:30:11.617Z,20.82
2022-09-07T23:33:14.239Z,20.82
2022-09-07T23:36:17.269Z,20.80
2022-09-07T23:39:22.043Z,20.74
2022-09-07T23:42:24.570Z,20.71
2022-09-07T23:45:27.230Z,20.68
2022-09-07T23:48:29.969Z,20.64
2022-09-07T23:51:32.446Z,20.60
2022-09-07T23:54:36.398Z,20.56
2022-09-07T23:57:39.504Z,20.49
